Time;durP1;ratioP1;P1;durP2;ratioP2;P2;SDS_P1;SDS_P2;PMS_P1;PMS_P2;Temp;Humidity;BMP_temperature;BMP_pressure;BME280_temperature;BME280_humidity;BME280_pressure;Samples;Min_cycle;Max_cycle;Signal;HPM_P1;HPM_P2
2021/04/26 00:01:50;;;;;;;1999.90;999.90;;;16.00;99.90;;;;;;5031338;28;20274;-40
2021/04/26 00:04:17;;;;;;;1999.90;999.90;;;15.90;99.90;;;;;;5031322;28;20166;-41
2021/04/26 00:06:44;;;;;;;1999.90;999.90;;;15.90;99.90;;;;;;5031128;28;20194;-40
2021/04/26 00:09:11;;;;;;;1999.90;999.90;;;15.90;99.90;;;;;;5031253;28;20166;-43
2021/04/26 00:11:38;;;;;;;1999.90;999.90;;;15.90;99.90;;;;;;5030680;28;20625;-40
2021/04/26 00:14:06;;;;;;;1999.90;999.90;;;15.80;99.90;;;;;;5031159;28;20527;-40
2021/04/26 00:16:33;;;;;;;1999.90;999.90;;;15.70;99.90;;;;;;5029907;28;20174;-43
2021/04/26 00:19:01;;;;;;;1999.90;999.90;;;15.70;99.90;;;;;;5030958;28;20218;-40
2021/04/26 00:21:28;;;;;;;1999.90;999.90;;;15.80;99.90;;;;;;5030716;28;20605;-40
2021/04/26 00:23:55;;;;;;;1999.90;999.90;;;15.70;99.90;;;;;;5030998;28;20166;-40
2021/04/26 00:26:21;;;;;;;1999.90;999.90;;;15.60;99.90;;;;;;5030749;28;20563;-43
2021/04/26 00:28:48;;;;;;;1999.90;999.90;;;15.60;99.90;;;;;;5030900;28;20197;-46
2021/04/26 00:31:15;;;;;;;1999.90;999.90;;;15.70;99.90;;;;;;5030796;28;20640;-40
2021/04/26 00:33:42;;;;;;;1999.90;999.90;;;15.80;99.90;;;;;;5030814;28;20170;-40
2021/04/26 00:36:09;;;;;;;1999.90;999.90;;;15.80;99.90;;;;;;5030739;28;20170;-40
2021/04/26 00:38:36;;;;;;;1999.90;999.90;;;15.60;99.90;;;;;;5030810;28;20515;-40
2021/04/26 00:41:03;;;;;;;1999.90;999.90;;;15.70;99.90;;;;;;5030776;28;20162;-40
2021/04/26 00:43:30;;;;;;;1999.90;999.90;;;15.70;99.90;;;;;;5030659;28;20169;-40
2021/04/26 00:45:57;;;;;;;1999.90;999.90;;;15.70;99.90;;;;;;5030600;28;20197;-40
2021/04/26 00:48:23;;;;;;;1999.90;999.90;;;15.90;99.90;;;;;;5030594;28;20170;-39
2021/04/26 00:50:50;;;;;;;1999.90;999.90;;;16.00;99.90;;;;;;5030599;28;20227;-40
2021/04/26 00:53:18;;;;;;;1999.90;999.90;;;16.20;99.90;;;;;;5030598;28;20254;-39
2021/04/26 00:55:45;;;;;;;1999.90;999.90;;;16.20;99.90;;;;;;5030462;28;20170;-39
2021/04/26 00:58:12;;;;;;;1999.90;999.90;;;16.30;99.90;;;;;;5030484;28;20172;-39
2021/04/26 01:00:39;;;;;;;1999.90;999.90;;;16.30;99.90;;;;;;5030522;28;20173;-47
2021/04/26 01:03:06;;;;;;;1999.90;999.90;;;16.40;99.90;;;;;;5030477;28;20193;-42
2021/04/26 01:05:35;;;;;;;1999.90;999.90;;;16.40;99.90;;;;;;5030325;28;20193;-39
2021/04/26 01:08:02;;;;;;;1999.90;999.90;;;16.20;99.40;;;;;;5030305;28;20701;-39
2021/04/26 01:10:32;;;;;;;1999.90;999.90;;;16.20;99.20;;;;;;5030397;28;20180;-38
2021/04/26 01:13:36;;;;;;;1999.90;999.90;;;16.20;99.20;;;;;;5030298;28;20609;-43
2021/04/26 01:16:23;;;;;;;1999.90;999.90;;;16.30;99.40;;;;;;5030125;28;20170;-39
2021/04/26 01:19:18;;;;;;;1999.90;999.90;;;16.20;99.70;;;;;;5030287;28;20231;-41
2021/04/26 01:22:26;;;;;;;1999.90;999.90;;;16.10;99.80;;;;;;5029919;28;20218;-47
2021/04/26 01:25:26;;;;;;;1999.90;999.90;;;16.10;99.90;;;;;;5029443;28;20154;-39
2021/04/26 01:28:29;;;;;;;1999.90;999.90;;;16.10;99.90;;;;;;5028768;28;20639;-39
2021/04/26 01:31:27;;;;;;;1999.90;999.90;;;16.00;99.90;;;;;;5038483;28;20208;-45
2021/04/26 01:33:57;;;;;;;1999.90;999.90;;;15.80;99.90;;;;;;5032684;28;20548;-39
2021/04/26 01:36:28;;;;;;;1999.90;999.90;;;15.80;99.90;;;;;;5029956;28;20628;-39
2021/04/26 01:38:57;;;;;;;1999.90;999.90;;;15.80;99.90;;;;;;5029964;28;20165;-39
2021/04/26 01:41:27;;;;;;;1999.90;999.90;;;15.80;99.90;;;;;;5029878;28;20638;-44
2021/04/26 01:43:55;;;;;;;1999.90;999.90;;;15.80;99.90;;;;;;5028619;28;20261;-39
2021/04/26 01:46:25;;;;;;;1999.90;999.90;;;15.90;99.90;;;;;;5029733;28;20228;-40
2021/04/26 01:48:54;;;;;;;1999.90;999.90;;;16.00;99.90;;;;;;5029788;28;20173;-40
2021/04/26 01:51:21;;;;;;;1999.90;999.90;;;16.10;99.90;;;;;;5029899;28;20172;-39
2021/04/26 01:53:49;;;;;;;1999.90;999.90;;;16.20;99.90;;;;;;5029783;28;20174;-48
2021/04/26 01:56:17;;;;;;;1999.90;999.90;;;16.20;99.90;;;;;;5029789;28;20166;-39
2021/04/26 01:58:49;;;;;;;1999.90;999.90;;;16.10;99.90;;;;;;5029687;28;20170;-39
2021/04/26 02:01:18;;;;;;;1999.90;999.90;;;16.00;99.90;;;;;;5029772;28;20166;-39
2021/04/26 02:03:55;;;;;;;1999.90;999.90;;;16.00;99.90;;;;;;5029537;28;20178;-39
2021/04/26 02:06:23;;;;;;;1999.90;999.90;;;15.90;99.90;;;;;;5029624;28;20193;-39
2021/04/26 02:08:51;;;;;;;1999.90;999.90;;;15.90;99.90;;;;;;5029616;28;20621;-39
2021/04/26 02:11:19;;;;;;;1999.90;999.90;;;15.90;99.90;;;;;;5029597;28;20260;-39
2021/04/26 02:13:47;;;;;;;1999.90;999.90;;;16.00;99.90;;;;;;5029575;28;20177;-38
2021/04/26 02:16:14;;;;;;;1999.90;999.90;;;16.00;99.90;;;;;;5029607;28;20647;-40
2021/04/26 02:18:41;;;;;;;1999.90;999.90;;;16.10;99.90;;;;;;5029615;28;20245;-40
2021/04/26 02:21:08;;;;;;;1999.90;999.90;;;16.10;99.90;;;;;;5029140;28;20236;-40
2021/04/26 02:23:37;;;;;;;1999.90;999.90;;;16.20;99.90;;;;;;5029469;28;20177;-49
2021/04/26 02:26:04;;;;;;;1999.90;999.90;;;16.20;99.90;;;;;;5029208;28;20190;-39
2021/04/26 02:28:31;;;;;;;1999.90;999.90;;;16.30;99.90;;;;;;5029369;28;20209;-39
2021/04/26 02:31:06;;;;;;;1999.90;999.90;;;16.40;99.90;;;;;;5029216;28;20618;-43
2021/04/26 02:33:44;;;;;;;1999.90;999.90;;;16.40;99.90;;;;;;5029262;28;20159;-39
2021/04/26 02:36:33;;;;;;;1999.90;999.90;;;16.60;99.90;;;;;;5032151;28;20165;-39
2021/04/26 02:39:07;;;;;;;1999.90;999.90;;;16.60;99.90;;;;;;5032674;28;20486;-40
2021/04/26 02:41:40;;;;;;;1999.90;999.90;;;16.70;99.90;;;;;;5032567;28;20162;-39
2021/04/26 02:44:18;;;;;;;1999.90;999.90;;;16.70;99.90;;;;;;5032547;28;20719;-39
2021/04/26 02:46:45;;;;;;;1999.90;999.90;;;16.80;99.90;;;;;;5032667;28;20206;-39
2021/04/26 02:49:13;;;;;;;1999.90;999.90;;;16.90;99.90;;;;;;5032526;28;20198;-40
2021/04/26 02:51:40;;;;;;;1999.90;999.90;;;16.90;99.90;;;;;;5032448;28;20162;-40
2021/04/26 02:54:08;;;;;;;1999.90;999.90;;;17.00;99.90;;;;;;5032414;28;20697;-41
2021/04/26 02:56:37;;;;;;;1999.90;999.90;;;17.10;99.90;;;;;;5032353;28;20650;-45
2021/04/26 02:59:07;;;;;;;1999.90;999.90;;;17.20;99.90;;;;;;5032327;28;20170;-40
2021/04/26 03:01:37;;;;;;;1999.90;999.90;;;17.10;99.90;;;;;;5032497;28;20185;-45
2021/04/26 03:04:06;;;;;;;1999.90;999.90;;;17.10;99.90;;;;;;5032212;28;20162;-39
2021/04/26 03:06:33;;;;;;;1999.90;999.90;;;17.10;99.90;;;;;;5031978;28;20233;-40
2021/04/26 03:09:01;;;;;;;1999.90;999.90;;;17.20;99.90;;;;;;5032110;28;20245;-39
2021/04/26 03:11:28;;;;;;;1999.90;999.90;;;17.20;99.90;;;;;;5032339;28;20185;-43
2021/04/26 03:13:55;;;;;;;1999.90;999.90;;;17.20;99.90;;;;;;5031913;28;20284;-39
2021/04/26 03:16:25;;;;;;;1999.90;999.90;;;17.20;99.90;;;;;;5032004;28;20650;-48
2021/04/26 03:18:52;;;;;;;1999.90;999.90;;;17.20;99.90;;;;;;5030782;28;20185;-39
2021/04/26 03:21:20;;;;;;;1999.90;999.90;;;17.20;99.90;;;;;;5031909;28;20251;-41
2021/04/26 03:23:47;;;;;;;1999.90;999.90;;;17.20;99.90;;;;;;5032111;28;20238;-43
2021/04/26 03:26:14;;;;;;;1999.90;999.90;;;17.10;99.90;;;;;;5031750;28;20194;-39
2021/04/26 03:28:43;;;;;;;1999.90;999.90;;;17.20;99.90;;;;;;5031875;28;20691;-39
2021/04/26 03:31:10;;;;;;;1999.90;999.90;;;17.10;99.90;;;;;;5031631;28;20178;-40
2021/04/26 03:33:38;;;;;;;1999.90;999.90;;;17.10;99.90;;;;;;5031672;28;20506;-46
2021/04/26 03:36:07;;;;;;;1999.90;999.90;;;17.10;99.90;;;;;;5031757;28;20581;-46
2021/04/26 03:38:36;;;;;;;1999.90;999.90;;;17.10;99.90;;;;;;5031770;28;20170;-39
2021/04/26 03:41:03;;;;;;;1999.90;999.90;;;17.10;99.90;;;;;;5031693;28;20210;-39
2021/04/26 03:43:30;;;;;;;1999.90;999.90;;;17.00;99.90;;;;;;5031573;28;20632;-40
2021/04/26 03:45:58;;;;;;;1999.90;999.90;;;17.00;99.90;;;;;;5030765;28;20541;-39
2021/04/26 03:48:25;;;;;;;1999.90;999.90;;;17.00;99.90;;;;;;5031413;28;20181;-39
2021/04/26 03:50:52;;;;;;;1999.90;999.90;;;17.00;99.90;;;;;;5031676;28;20165;-43
2021/04/26 03:53:19;;;;;;;1999.90;999.90;;;16.90;99.90;;;;;;5031674;28;20169;-40
2021/04/26 03:55:46;;;;;;;1999.90;999.90;;;17.00;99.90;;;;;;5031320;28;20158;-39
2021/04/26 03:58:13;;;;;;;1999.90;999.90;;;16.90;99.90;;;;;;5031376;28;20222;-41
2021/04/26 04:00:40;;;;;;;1999.90;999.90;;;16.90;99.90;;;;;;5031156;28;20516;-39
2021/04/26 04:03:10;;;;;;;1999.90;999.90;;;16.80;99.90;;;;;;5031108;28;20598;-41
2021/04/26 04:05:38;;;;;;;1999.90;999.90;;;16.80;99.90;;;;;;5031130;28;20256;-39
2021/04/26 04:08:05;;;;;;;1999.90;999.90;;;16.80;99.90;;;;;;5031209;28;20167;-39
2021/04/26 04:10:33;;;;;;;1999.90;999.90;;;16.70;99.90;;;;;;5031050;28;20708;-40
2021/04/26 04:13:01;;;;;;;1999.90;999.90;;;16.80;99.90;;;;;;5031030;28;20177;-44
2021/04/26 04:15:28;;;;;;;1999.90;999.90;;;16.80;99.90;;;;;;5031049;28;20166;-41
2021/04/26 04:17:55;;;;;;;1999.90;999.90;;;16.80;99.90;;;;;;5031062;28;20166;-39
2021/04/26 04:20:22;;;;;;;1999.90;999.90;;;16.80;99.90;;;;;;5031077;28;20182;-40
2021/04/26 04:22:48;;;;;;;1999.90;999.90;;;16.80;99.90;;;;;;5030789;28;20226;-39
2021/04/26 04:25:16;;;;;;;1999.90;999.90;;;16.80;99.90;;;;;;5030799;28;20624;-39
2021/04/26 04:27:44;;;;;;;1999.90;999.90;;;16.80;99.90;;;;;;5030799;28;20252;-44
2021/04/26 04:30:13;;;;;;;1999.90;999.90;;;16.80;99.90;;;;;;5029487;28;20170;-46
2021/04/26 04:32:40;;;;;;;1999.90;999.90;;;16.70;99.90;;;;;;5030838;28;20169;-39
2021/04/26 04:35:08;;;;;;;1999.90;999.90;;;16.80;99.90;;;;;;5030981;28;20230;-42
2021/04/26 04:37:35;;;;;;;1999.90;999.90;;;16.70;99.90;;;;;;5030716;28;20162;-44
2021/04/26 04:40:05;;;;;;;1999.90;999.90;;;16.70;99.90;;;;;;5030626;28;20260;-40
2021/04/26 04:42:32;;;;;;;1999.90;999.90;;;16.80;99.90;;;;;;5030564;28;20173;-40
2021/04/26 04:44:58;;;;;;;1999.90;999.90;;;16.70;99.90;;;;;;5030495;28;20269;-40
2021/04/26 04:47:25;;;;;;;1999.90;999.90;;;16.70;99.90;;;;;;5030576;28;20198;-40
2021/04/26 04:49:52;;;;;;;1999.90;999.90;;;16.80;99.90;;;;;;5030480;28;20173;-44
2021/04/26 04:52:19;;;;;;;1999.90;999.90;;;16.80;99.90;;;;;;5030423;28;20174;-44
2021/04/26 04:54:46;;;;;;;1999.90;999.90;;;16.80;99.90;;;;;;5030384;28;20169;-46
2021/04/26 04:57:13;;;;;;;1999.90;999.90;;;16.90;99.90;;;;;;5030325;28;20174;-39
2021/04/26 04:59:40;;;;;;;1999.90;999.90;;;16.90;99.90;;;;;;5030324;28;20162;-39
2021/04/26 05:02:07;;;;;;;1999.90;999.90;;;16.90;99.90;;;;;;5030386;28;20663;-40
2021/04/26 05:04:33;;;;;;;1999.90;999.90;;;16.90;99.90;;;;;;5030321;28;20166;-44
2021/04/26 05:07:00;;;;;;;1999.90;999.90;;;16.80;99.90;;;;;;5030073;28;20198;-39
2021/04/26 05:09:27;;;;;;;1999.90;999.90;;;16.80;99.90;;;;;;5030374;28;20166;-48
2021/04/26 05:11:54;;;;;;;1999.90;999.90;;;16.80;99.90;;;;;;5030123;28;20198;-39
2021/04/26 05:14:23;;;;;;;1999.90;999.90;;;16.80;99.90;;;;;;5030068;28;20176;-39
2021/04/26 05:16:50;;;;;;;1999.90;999.90;;;16.80;99.90;;;;;;5029895;28;20728;-39
2021/04/26 05:19:17;;;;;;;1999.90;999.90;;;16.80;99.90;;;;;;5029950;28;20166;-43
2021/04/26 05:21:43;;;;;;;1999.90;999.90;;;16.80;99.90;;;;;;5029790;28;20228;-39
2021/04/26 05:24:11;;;;;;;1999.90;999.90;;;16.90;99.90;;;;;;5029788;28;20158;-41
2021/04/26 05:26:38;;;;;;;1999.90;999.90;;;16.90;99.90;;;;;;5030167;28;20229;-40
2021/04/26 05:29:05;;;;;;;1999.90;999.90;;;16.90;99.90;;;;;;5029533;28;20198;-40
2021/04/26 05:31:32;;;;;;;1999.90;999.90;;;16.90;99.90;;;;;;5029711;28;20169;-40
2021/04/26 05:33:58;;;;;;;1999.90;999.90;;;16.80;99.90;;;;;;5029752;28;20501;-40
2021/04/26 05:36:25;;;;;;;1999.90;999.90;;;16.90;99.90;;;;;;5029571;28;20505;-40
2021/04/26 05:38:52;;;;;;;1999.90;999.90;;;16.90;99.90;;;;;;5029635;28;20184;-40
2021/04/26 05:41:19;;;;;;;1999.90;999.90;;;16.90;99.90;;;;;;5029642;28;20170;-45
2021/04/26 05:43:46;;;;;;;1999.90;999.90;;;16.90;99.90;;;;;;5029657;28;20174;-47
2021/04/26 05:46:14;;;;;;;1999.90;999.90;;;16.90;99.90;;;;;;5029292;28;20205;-40
2021/04/26 05:48:41;;;;;;;1999.90;999.90;;;16.90;99.90;;;;;;5029510;28;20600;-51
2021/04/26 05:51:08;;;;;;;1999.90;999.90;;;17.00;99.90;;;;;;5029300;28;20178;-45
2021/04/26 05:53:36;;;;;;;1999.90;999.90;;;17.00;99.90;;;;;;5029207;28;20173;-42
2021/04/26 05:56:03;;;;;;;1999.90;999.90;;;17.10;99.90;;;;;;5029405;28;20244;-40
2021/04/26 05:58:30;;;;;;;1999.90;999.90;;;17.10;99.90;;;;;;5029150;28;20678;-57
2021/04/26 06:00:57;;;;;;;1999.90;999.90;;;17.10;99.80;;;;;;5028666;28;20227;-56
2021/04/26 06:03:24;;;;;;;1999.90;999.90;;;17.30;98.60;;;;;;5028769;28;20185;-53
2021/04/26 06:05:51;;;;;;;1999.90;999.90;;;17.50;98.60;;;;;;5027642;28;20181;-48
2021/04/26 06:08:18;;;;;;;1999.90;999.90;;;17.60;98.20;;;;;;5028705;28;20173;-51
2021/04/26 06:10:45;;;;;;;1999.90;999.90;;;17.80;98.10;;;;;;5031811;28;20197;-50
2021/04/26 06:13:12;;;;;;;1999.90;999.90;;;17.90;97.80;;;;;;5032922;28;20182;-49
2021/04/26 06:15:40;;;;;;;1999.90;999.90;;;18.00;97.80;;;;;;5032815;28;20252;-46
2021/04/26 06:18:18;;;;;;;1999.90;999.90;;;18.10;97.60;;;;;;5032535;28;20173;-47
2021/04/26 06:20:47;;;;;;;1999.90;999.90;;;18.20;96.90;;;;;;5031600;28;20181;-46
2021/04/26 06:23:14;;;;;;;1999.90;999.90;;;18.20;96.70;;;;;;5032643;28;20166;-47
2021/04/26 06:25:42;;;;;;;1999.90;999.90;;;18.30;96.30;;;;;;5032239;28;20169;-46
2021/04/26 06:28:10;;;;;;;1999.90;999.90;;;18.40;96.10;;;;;;5032336;28;20181;-54
2021/04/26 06:30:38;;;;;;;1999.90;999.90;;;18.40;95.70;;;;;;5032476;28;20170;-45
2021/04/26 06:33:08;;;;;;;1999.90;999.90;;;18.40;95.60;;;;;;5032533;28;20535;-45
2021/04/26 06:35:36;;;;;;;1999.90;999.90;;;18.40;95.40;;;;;;5032533;28;20170;-48
2021/04/26 06:38:03;;;;;;;1999.90;999.90;;;18.50;95.10;;;;;;5032088;28;20177;-42
2021/04/26 06:40:30;;;;;;;1999.90;999.90;;;18.50;95.00;;;;;;5032269;28;20628;-44
2021/04/26 06:42:57;;;;;;;1999.90;999.90;;;18.40;94.90;;;;;;5032478;28;21126;-41
2021/04/26 06:45:24;;;;;;;1999.90;999.90;;;18.40;94.80;;;;;;5032332;28;20174;-43
2021/04/26 06:47:54;;;;;;;1999.90;999.90;;;18.20;94.90;;;;;;5031904;28;20241;-43
2021/04/26 06:50:22;;;;;;;1999.90;999.90;;;18.20;95.20;;;;;;5012441;28;20167;-43
2021/04/26 06:52:53;;;;;;;1999.90;999.90;;;18.30;95.10;;;;;;5022803;28;20225;-42
2021/04/26 06:55:21;;;;;;;1999.90;999.90;;;18.30;95.10;;;;;;5032197;28;20164;-42
2021/04/26 06:57:48;;;;;;;1999.90;999.90;;;18.20;95.00;;;;;;5031664;28;20741;-41
2021/04/26 07:00:16;;;;;;;1999.90;999.90;;;18.20;95.40;;;;;;5032006;28;20616;-41
2021/04/26 07:02:43;;;;;;;1999.90;999.90;;;18.20;95.00;;;;;;5031479;28;20209;-41
2021/04/26 07:05:10;;;;;;;1999.90;999.90;;;18.20;94.90;;;;;;5031619;28;20219;-42
2021/04/26 07:07:37;;;;;;;1999.90;999.90;;;18.20;95.00;;;;;;5031927;28;20228;-41
2021/04/26 07:10:05;;;;;;;1999.90;999.90;;;18.20;94.90;;;;;;5031840;28;20166;-43
2021/04/26 07:12:32;;;;;;;1999.90;999.90;;;18.20;94.70;;;;;;5046668;28;20177;-42
2021/04/26 07:15:00;;;;;;;1999.90;999.90;;;18.20;94.60;;;;;;5050574;28;21018;-41
2021/04/26 07:17:27;;;;;;;1999.90;999.90;;;18.30;94.40;;;;;;5027223;28;20520;-41
2021/04/26 07:19:54;;;;;;;1999.90;999.90;;;18.30;94.40;;;;;;5031545;28;20202;-43
2021/04/26 07:22:21;;;;;;;1999.90;999.90;;;18.40;94.10;;;;;;5030415;28;20270;-46
2021/04/26 07:24:48;;;;;;;1999.90;999.90;;;18.40;94.20;;;;;;5031450;28;20189;-43
2021/04/26 07:27:15;;;;;;;1999.90;999.90;;;18.50;94.00;;;;;;5030639;28;20226;-42
2021/04/26 07:29:41;;;;;;;1999.90;999.90;;;18.60;93.70;;;;;;5031147;28;20227;-43
2021/04/26 07:32:08;;;;;;;1999.90;999.90;;;18.70;93.90;;;;;;5031289;28;20635;-45
2021/04/26 07:34:35;;;;;;;1999.90;999.90;;;18.80;93.50;;;;;;5030879;28;20170;-43
2021/04/26 07:37:02;;;;;;;1999.90;999.90;;;18.90;93.20;;;;;;5031077;28;20182;-45
2021/04/26 07:39:31;;;;;;;1999.90;999.90;;;18.90;93.20;;;;;;5029684;28;20170;-43
2021/04/26 07:42:01;;;;;;;1999.90;999.90;;;18.90;93.10;;;;;;5030819;28;20166;-44
2021/04/26 07:44:28;;;;;;;1999.90;999.90;;;19.00;92.60;;;;;;5030966;28;20205;-43
2021/04/26 07:46:56;;;;;;;1999.90;999.90;;;19.10;92.30;;;;;;5030621;28;20214;-48
2021/04/26 07:49:24;;;;;;;1999.90;999.90;;;19.40;92.10;;;;;;5030897;28;20170;-47
2021/04/26 07:51:51;;;;;;;1999.90;999.90;;;19.40;91.30;;;;;;5030636;28;20178;-50
2021/04/26 07:54:18;;;;;;;1999.90;999.90;;;19.70;90.60;;;;;;5030913;28;20170;-49
2021/04/26 07:56:45;;;;;;;1999.90;999.90;;;19.90;90.10;;;;;;5030590;28;20264;-52
2021/04/26 07:59:12;;;;;;;1999.90;999.90;;;20.10;89.40;;;;;;5030884;28;20185;-50
2021/04/26 08:01:39;;;;;;;1999.90;999.90;;;20.30;89.00;;;;;;5030893;28;20171;-46
2021/04/26 08:04:05;;;;;;;1999.90;999.90;;;20.60;87.60;;;;;;5030076;28;20575;-40
2021/04/26 08:06:33;;;;;;;1999.90;999.90;;;20.60;87.40;;;;;;5030110;28;20213;-40
2021/04/26 08:09:00;;;;;;;1999.90;999.90;;;20.50;85.80;;;;;;5030665;28;20219;-40
2021/04/26 08:11:27;;;;;;;1999.90;999.90;;;20.40;86.40;;;;;;5029968;28;20616;-40
2021/04/26 08:13:54;;;;;;;1999.90;999.90;;;20.50;86.50;;;;;;5030219;28;20210;-44
2021/04/26 08:16:21;;;;;;;1999.90;999.90;;;20.80;84.80;;;;;;5030141;28;20535;-45
2021/04/26 08:18:47;;;;;;;1999.90;999.90;;;21.00;83.00;;;;;;5030386;28;20170;-41
2021/04/26 08:21:14;;;;;;;1999.90;999.90;;;21.30;82.80;;;;;;5029655;28;20210;-43
2021/04/26 08:23:43;;;;;;;1999.90;999.90;;;21.60;81.00;;;;;;5029799;28;20174;-55
2021/04/26 08:26:13;;;;;;;1999.90;999.90;;;21.80;79.20;;;;;;5042826;28;20193;-45
2021/04/26 08:28:39;;;;;;;1999.90;999.90;;;21.80;78.90;;;;;;5049891;28;20214;-43
2021/04/26 08:31:07;;;;;;;1999.90;999.90;;;21.60;78.60;;;;;;5030118;28;20162;-44
2021/04/26 08:33:36;;;;;;;1999.90;999.90;;;21.50;79.30;;;;;;5028804;28;20169;-48
2021/04/26 08:36:03;;;;;;;1999.90;999.90;;;21.30;79.60;;;;;;5029682;28;20170;-48
2021/04/26 08:38:30;;;;;;;1999.90;999.90;;;21.20;80.20;;;;;;5030176;28;20589;-47
2021/04/26 08:40:57;;;;;;;1999.90;999.90;;;21.10;80.70;;;;;;5029926;28;20539;-46
2021/04/26 08:43:24;;;;;;;1999.90;999.90;;;20.90;81.00;;;;;;5030151;28;20180;-46
2021/04/26 08:45:51;;;;;;;1999.90;999.90;;;20.70;81.80;;;;;;5029808;28;20212;-47
2021/04/26 08:48:19;;;;;;;1999.90;999.90;;;20.40;83.20;;;;;;5013771;28;20221;-44
2021/04/26 08:50:46;;;;;;;1999.90;999.90;;;20.00;85.80;;;;;;5010660;28;20179;-44
2021/04/26 08:53:13;;;;;;;1999.90;999.90;;;19.90;86.20;;;;;;5012451;28;20172;-47
2021/04/26 08:55:40;;;;;;;1999.90;999.90;;;19.90;86.90;;;;;;5030011;28;20250;-44
2021/04/26 08:58:07;;;;;;;1999.90;999.90;;;19.90;86.90;;;;;;5029748;28;20166;-44
2021/04/26 09:00:34;;;;;;;1999.90;999.90;;;20.00;86.20;;;;;;5030065;28;20265;-45
2021/04/26 09:03:03;;;;;;;1999.90;999.90;;;20.00;85.30;;;;;;5029857;28;20242;-44
2021/04/26 09:05:34;;;;;;;1999.90;999.90;;;20.10;85.20;;;;;;5029364;28;20182;-44
2021/04/26 09:08:09;;;;;;;1999.90;999.90;;;20.40;84.10;;;;;;5029185;28;20714;-44
2021/04/26 09:10:41;;;;;;;1999.90;999.90;;;20.80;82.60;;;;;;5029694;28;20175;-45
2021/04/26 09:13:24;;;;;;;1999.90;999.90;;;20.90;82.00;;;;;;5029485;28;20537;-44
2021/04/26 09:16:02;;;;;;;1999.90;999.90;;;21.20;80.20;;;;;;5029471;28;20310;-45
2021/04/26 09:18:56;;;;;;;1999.90;999.90;;;21.10;80.10;;;;;;5029910;28;20245;-56
2021/04/26 09:21:32;;;;;;;1999.90;999.90;;;21.50;78.70;;;;;;5029820;28;20233;-48
2021/04/26 09:24:21;;;;;;;1999.90;999.90;;;22.20;77.20;;;;;;5029652;28;20173;-49
2021/04/26 09:26:54;;;;;;;1999.90;999.90;;;22.60;74.50;;;;;;5010462;28;20205;-48
2021/04/26 09:29:22;;;;;;;1999.90;999.90;;;22.80;73.20;;;;;;5010295;28;20158;-49
2021/04/26 09:32:06;;;;;;;1999.90;999.90;;;23.10;72.10;;;;;;5018186;28;20178;-44
2021/04/26 09:34:47;;;;;;;1999.90;999.90;;;23.10;71.00;;;;;;5092137;27;20170;-51
2021/04/26 09:37:25;;;;;;;1999.90;999.90;;;23.20;71.10;;;;;;5030265;28;20170;-54
2021/04/26 09:39:58;;;;;;;1999.90;999.90;;;23.30;70.60;;;;;;5029557;28;20621;-58
2021/04/26 09:42:42;;;;;;;1999.90;999.90;;;23.20;70.10;;;;;;5029202;28;20170;-47
2021/04/26 09:45:33;;;;;;;1999.90;999.90;;;22.80;70.90;;;;;;5028318;28;20215;-46
2021/04/26 09:48:27;;;;;;;1999.90;999.90;;;22.50;72.90;;;;;;5046949;28;20277;-46
2021/04/26 09:50:54;;;;;;;1999.90;999.90;;;22.20;73.20;;;;;;5041410;28;20169;-49
2021/04/26 09:53:22;;;;;;;1999.90;999.90;;;22.00;74.10;;;;;;5029649;28;20178;-45
2021/04/26 09:55:52;;;;;;;1999.90;999.90;;;22.00;73.70;;;;;;5036037;28;20178;-48
2021/04/26 09:58:19;;;;;;;1999.90;999.90;;;22.10;74.00;;;;;;5029614;28;20189;-49
2021/04/26 10:00:46;;;;;;;1999.90;999.90;;;22.30;73.50;;;;;;5028975;28;20185;-51
2021/04/26 10:03:16;;;;;;;1999.90;999.90;;;22.40;72.20;;;;;;5037972;28;20173;-47
2021/04/26 10:05:47;;;;;;;1999.90;999.90;;;22.40;72.20;;;;;;5034590;28;20181;-46
2021/04/26 10:08:16;;;;;;;1999.90;999.90;;;22.40;71.90;;;;;;5045038;28;20174;-46
2021/04/26 10:10:45;;;;;;;1999.90;999.90;;;22.20;71.70;;;;;;5029184;28;20629;-49
2021/04/26 10:13:12;;;;;;;1999.90;999.90;;;22.60;72.00;;;;;;5029965;28;20178;-56
2021/04/26 10:15:39;;;;;;;1999.90;999.90;;;22.90;70.40;;;;;;5048979;28;20166;-45
2021/04/26 10:18:10;;;;;;;1999.90;999.90;;;23.00;69.90;;;;;;5041538;28;20702;-46
2021/04/26 10:20:42;;;;;;;1999.90;999.90;;;23.00;69.70;;;;;;5028321;28;20174;-52
2021/04/26 10:23:39;;;;;;;1999.90;999.90;;;23.10;69.20;;;;;;5032527;28;20683;-46
2021/04/26 10:26:07;;;;;;;1999.90;999.90;;;23.00;70.00;;;;;;5028545;28;20210;-50
2021/04/26 10:28:38;;;;;;;1999.90;999.90;;;23.10;67.90;;;;;;5009443;28;20178;-47
2021/04/26 10:31:12;;;;;;;1999.90;999.90;;;23.30;67.60;;;;;;5024021;28;20233;-50
2021/04/26 10:34:00;;;;;;;1999.90;999.90;;;23.40;66.60;;;;;;5029443;28;20166;-48
2021/04/26 10:36:41;;;;;;;1999.90;999.90;;;23.20;66.50;;;;;;5028958;28;20608;-51
2021/04/26 10:39:10;;;;;;;1999.90;999.90;;;22.90;67.50;;;;;;5028727;28;20177;-57
2021/04/26 10:41:53;;;;;;;1999.90;999.90;;;23.00;68.40;;;;;;5043471;28;20178;-46
2021/04/26 10:44:41;;;;;;;1999.90;999.90;;;23.30;67.30;;;;;;5048767;28;20211;-57
2021/04/26 10:47:24;;;;;;;1999.90;999.90;;;23.40;66.90;;;;;;5009309;28;20207;-41
2021/04/26 10:50:01;;;;;;;1999.90;999.90;;;23.50;64.20;;;;;;5009244;28;20171;-42
2021/04/26 10:52:30;;;;;;;1999.90;999.90;;;23.40;64.70;;;;;;5015396;28;20162;-41
2021/04/26 10:55:00;;;;;;;1999.90;999.90;;;23.20;65.50;;;;;;5028088;28;20170;-41
2021/04/26 10:57:45;;;;;;;1999.90;999.90;;;22.90;66.60;;;;;;5047014;28;20169;-45
2021/04/26 11:00:27;;;;;;;1999.90;999.90;;;22.60;67.50;;;;;;5039766;28;20201;-48
2021/04/26 11:02:56;;;;;;;1999.90;999.90;;;22.60;68.10;;;;;;5031561;28;20181;-57
2021/04/26 11:05:29;;;;;;;1999.90;999.90;;;22.90;67.60;;;;;;5032219;28;20169;-47
2021/04/26 11:08:16;;;;;;;1999.90;999.90;;;23.10;66.80;;;;;;5031507;28;20247;-48
2021/04/26 11:10:49;;;;;;;1999.90;999.90;;;23.20;66.10;;;;;;5034827;28;20252;-47
2021/04/26 11:13:34;;;;;;;1999.90;999.90;;;23.10;66.00;;;;;;5031615;28;20231;-46
2021/04/26 11:16:22;;;;;;;1999.90;999.90;;;23.50;65.50;;;;;;5031547;28;20219;-41
2021/04/26 11:19:13;;;;;;;1999.90;999.90;;;23.60;63.50;;;;;;5031828;28;20613;-44
2021/04/26 11:21:43;;;;;;;1999.90;999.90;;;23.30;64.70;;;;;;5031471;28;20710;-46
2021/04/26 11:24:11;;;;;;;1999.90;999.90;;;23.00;65.90;;;;;;5031502;28;20174;-44
2021/04/26 11:26:38;;;;;;;1999.90;999.90;;;23.40;65.20;;;;;;5030773;28;20205;-46
2021/04/26 11:29:12;;;;;;;1999.90;999.90;;;23.50;64.60;;;;;;5031084;28;20166;-46
2021/04/26 11:31:44;;;;;;;1999.90;999.90;;;23.70;63.50;;;;;;5046870;28;20181;-40
2021/04/26 11:34:14;;;;;;;1999.90;999.90;;;23.30;64.10;;;;;;5048648;28;20170;-42
2021/04/26 11:37:01;;;;;;;1999.90;999.90;;;23.40;64.30;;;;;;5031175;28;20684;-58
2021/04/26 11:39:29;;;;;;;1999.90;999.90;;;23.50;64.30;;;;;;5065365;27;20184;-51
2021/04/26 11:41:56;;;;;;;1999.90;999.90;;;23.50;64.20;;;;;;5039554;28;20174;-53
2021/04/26 11:44:33;;;;;;;1999.90;999.90;;;23.50;64.00;;;;;;5031714;28;20629;-56
2021/04/26 11:47:09;;;;;;;1999.90;999.90;;;23.90;62.70;;;;;;5037844;28;20201;-58
2021/04/26 11:49:41;;;;;;;1999.90;999.90;;;24.20;61.10;;;;;;5038609;28;20166;-52
2021/04/26 11:52:20;;;;;;;1999.90;999.90;;;24.20;60.50;;;;;;5031272;28;20166;-43
2021/04/26 11:54:53;;;;;;;1999.90;999.90;;;24.10;59.50;;;;;;5031414;28;20161;-45
2021/04/26 11:57:22;;;;;;;1999.90;999.90;;;23.60;60.10;;;;;;5031349;28;20178;-44
2021/04/26 12:00:01;;;;;;;1999.90;999.90;;;23.40;61.20;;;;;;5031473;28;20178;-42
2021/04/26 12:02:37;;;;;;;1999.90;999.90;;;23.30;61.10;;;;;;5031482;28;20619;-48
2021/04/26 12:05:16;;;;;;;1999.90;999.90;;;23.60;60.30;;;;;;5031275;28;20571;-44
2021/04/26 12:07:45;;;;;;;1999.90;999.90;;;23.80;59.60;;;;;;5030030;28;20216;-43
2021/04/26 12:10:18;;;;;;;1999.90;999.90;;;23.70;59.60;;;;;;5030940;28;20180;-43
2021/04/26 12:12:47;;;;;;;1999.90;999.90;;;23.60;59.60;;;;;;5030651;28;20159;-41
2021/04/26 12:15:18;;;;;;;1999.90;999.90;;;23.60;59.50;;;;;;5030655;28;20639;-46